Skagit — WDG5561 — position and weather

sailwx.info

Track history (hours):
 
Tides and Currents Weather Stations Pressure Air Temp Water Temp Dewpoint Dewpoint Depression Visibility Wind Speed Wind Dir Waves Ship Positions

Skagit

Owner: Orion Marine Contractors, Inc., Tacoma, WA. More information available from US FCC via Universal Licensing System and Coast Guard Vessel Documentation Center.

Last reported at 2018-Jun-08 22:21 UTC. Time now 2018-Jun-20 07:42 UTC.
Position N 47°17' W 122°24'.
Warning: this ship's position is 11 days out of date.

Length 18 m; draft 1.6 m.

Type: Tug. MMSI: 366743460.

Date/timePositionNaut miles runAvg speedWind from/ knotsBaromVisibWave heightAir tempDewpointWater temp
2018-Jun-08 22:21N 47°17' W 122°24'2 3.8
2018-Jun-08 21:57N 47°18' W 122°26'1 3.1
2018-Jun-08 21:31N 47°19' W 122°27'3 6.2
2018-Jun-08 21:00N 47°22' W 122°25'3 5.5
2018-Jun-08 20:30N 47°24' W 122°23'2 3.3
2018-Jun-08 20:01N 47°25' W 122°24'2 3.9
2018-Jun-08 19:30N 47°27' W 122°25'2 4.9
2018-Jun-08 19:01N 47°29' W 122°26'2 4.7
2018-Jun-08 18:30N 47°32' W 122°27'2 4.8
2018-Jun-08 18:00N 47°34' W 122°27'3 5.6
2018-Jun-08 17:31N 47°36' W 122°24'2 3.2
2018-Jun-08 16:58N 47°35' W 122°22'2 3.4
2018-Jun-08 16:30N 47°33' W 122°21'1 1.2
2018-Jun-08 16:00N 47°33' W 122°20'0 0.0
2018-Jun-08 15:30N 47°33' W 122°20'3 5.7
2018-Jun-08 15:00N 47°35' W 122°22'3 6.2
2018-Jun-08 14:30N 47°33' W 122°25'5 9.3
2018-Jun-08 14:00N 47°29' W 122°24'5 9.4
2018-Jun-08 13:31N 47°24' W 122°22'4 7.9
2018-Jun-08 13:01N 47°21' W 122°24'3 6.8
2018-Jun-08 12:30N 47°18' W 122°26'  
2018-Jun-05 19:52N 47°17' W 122°23'0 0.0
2018-Jun-04 21:04N 47°17' W 122°23'0 1.1
2018-Jun-04 21:00N 47°17' W 122°23'0 0.0
2018-Jun-04 20:30N 47°17' W 122°23'0 0.0
2018-Jun-04 19:54N 47°17' W 122°23'0 0.0
2018-Jun-04 19:26N 47°17' W 122°23'0 0.0
2018-Jun-04 18:58N 47°17' W 122°23'0 0.0
2018-Jun-04 18:30N 47°17' W 122°23'0 0.0
2018-Jun-04 14:17N 47°17' W 122°23'0 0.0
2018-Jun-04 13:48N 47°17' W 122°23'  
2018-May-31 22:15N 47°17' W 122°23'0 0.2
2018-May-31 21:35N 47°17' W 122°23'0 1.4
2018-May-31 21:30N 47°17' W 122°23'0 0.2
2018-May-31 20:35N 47°17' W 122°23'0 0.0
2018-May-31 19:34N 47°17' W 122°23'0 0.0
2018-May-31 19:28N 47°17' W 122°23'0 0.0
2018-May-31 18:15N 47°17' W 122°23'0 0.0
2018-May-31 17:54N 47°17' W 122°23'0 0.0
2018-May-31 17:30N 47°17' W 122°23'0 0.0
2018-May-31 17:00N 47°17' W 122°23'0 0.0
2018-May-31 15:05N 47°17' W 122°23'0 0.1
2018-May-31 14:50N 47°17' W 122°23'0 0.3
2018-May-31 14:30N 47°17' W 122°23'0 0.1
2018-May-31 13:53N 47°16' W 122°23'0 0.0
2018-May-30 20:02N 47°17' W 122°23'0 0.7
2018-May-30 19:46N 47°17' W 122°23'0 0.5
2018-May-30 19:30N 47°17' W 122°23'0 0.0
2018-May-30 18:06N 47°17' W 122°23'0 0.1
2018-May-30 17:53N 47°17' W 122°23'0 0.0
2018-May-30 17:28N 47°17' W 122°23'0 0.0
2018-May-30 17:00N 47°17' W 122°23'0 0.0
2018-May-30 16:30N 47°17' W 122°23'0 0.1
2018-May-30 15:55N 47°17' W 122°23'0 0.1
2018-May-30 15:30N 47°17' W 122°23'0 0.3
2018-May-30 14:58N 47°17' W 122°23'0 0.0
2018-May-30 14:29N 47°17' W 122°23'0 0.0
2018-May-30 13:59N 47°17' W 122°23'0 0.0
2018-May-29 22:45N 47°17' W 122°23'  
Track history (hours):
 
Tides and Currents Weather Stations Pressure Air Temp Water Temp Dewpoint Dewpoint Depression Visibility Wind Speed Wind Dir Waves Ship Positions

Skagit

Owner: Orion Marine Contractors, Inc., Tacoma, WA. More information available from US FCC via Universal Licensing System and Coast Guard Vessel Documentation Center.

Last reported at 2018-Jun-08 22:21 UTC. Time now 2018-Jun-20 07:42 UTC.
Position N 47°17' W 122°24'.
Warning: this ship's position is 11 days out of date.

Length 18 m; draft 1.6 m.

Type: Tug. MMSI: 366743460.

Date/timePositionNaut miles runAvg speedWind from/ knotsBaromVisibWave heightAir tempDewpointWater temp
2018-Jun-08 22:21N 47°17' W 122°24'2 3.8
2018-Jun-08 21:57N 47°18' W 122°26'1 3.1
2018-Jun-08 21:31N 47°19' W 122°27'3 6.2
2018-Jun-08 21:00N 47°22' W 122°25'3 5.5
2018-Jun-08 20:30N 47°24' W 122°23'2 3.3
2018-Jun-08 20:01N 47°25' W 122°24'2 3.9
2018-Jun-08 19:30N 47°27' W 122°25'2 4.9
2018-Jun-08 19:01N 47°29' W 122°26'2 4.7
2018-Jun-08 18:30N 47°32' W 122°27'2 4.8
2018-Jun-08 18:00N 47°34' W 122°27'3 5.6
2018-Jun-08 17:31N 47°36' W 122°24'2 3.2
2018-Jun-08 16:58N 47°35' W 122°22'2 3.4
2018-Jun-08 16:30N 47°33' W 122°21'1 1.2
2018-Jun-08 16:00N 47°33' W 122°20'0 0.0
2018-Jun-08 15:30N 47°33' W 122°20'3 5.7
2018-Jun-08 15:00N 47°35' W 122°22'3 6.2
2018-Jun-08 14:30N 47°33' W 122°25'5 9.3
2018-Jun-08 14:00N 47°29' W 122°24'5 9.4
2018-Jun-08 13:31N 47°24' W 122°22'4 7.9
2018-Jun-08 13:01N 47°21' W 122°24'3 6.8
2018-Jun-08 12:30N 47°18' W 122°26'  
2018-Jun-05 19:52N 47°17' W 122°23'0 0.0
2018-Jun-04 21:04N 47°17' W 122°23'0 1.1
2018-Jun-04 21:00N 47°17' W 122°23'0 0.0
2018-Jun-04 20:30N 47°17' W 122°23'0 0.0
2018-Jun-04 19:54N 47°17' W 122°23'0 0.0
2018-Jun-04 19:26N 47°17' W 122°23'0 0.0
2018-Jun-04 18:58N 47°17' W 122°23'0 0.0
2018-Jun-04 18:30N 47°17' W 122°23'0 0.0
2018-Jun-04 14:17N 47°17' W 122°23'0 0.0
2018-Jun-04 13:48N 47°17' W 122°23'  
2018-May-31 22:15N 47°17' W 122°23'0 0.2
2018-May-31 21:35N 47°17' W 122°23'0 1.4
2018-May-31 21:30N 47°17' W 122°23'0 0.2
2018-May-31 20:35N 47°17' W 122°23'0 0.0
2018-May-31 19:34N 47°17' W 122°23'0 0.0
2018-May-31 19:28N 47°17' W 122°23'0 0.0
2018-May-31 18:15N 47°17' W 122°23'0 0.0
2018-May-31 17:54N 47°17' W 122°23'0 0.0
2018-May-31 17:30N 47°17' W 122°23'0 0.0
2018-May-31 17:00N 47°17' W 122°23'0 0.0
2018-May-31 15:05N 47°17' W 122°23'0 0.1
2018-May-31 14:50N 47°17' W 122°23'0 0.3
2018-May-31 14:30N 47°17' W 122°23'0 0.1
2018-May-31 13:53N 47°16' W 122°23'0 0.0
2018-May-30 20:02N 47°17' W 122°23'0 0.7
2018-May-30 19:46N 47°17' W 122°23'0 0.5
2018-May-30 19:30N 47°17' W 122°23'0 0.0
2018-May-30 18:06N 47°17' W 122°23'0 0.1
2018-May-30 17:53N 47°17' W 122°23'0 0.0
2018-May-30 17:28N 47°17' W 122°23'0 0.0
2018-May-30 17:00N 47°17' W 122°23'0 0.0
2018-May-30 16:30N 47°17' W 122°23'0 0.1
2018-May-30 15:55N 47°17' W 122°23'0 0.1
2018-May-30 15:30N 47°17' W 122°23'0 0.3
2018-May-30 14:58N 47°17' W 122°23'0 0.0
2018-May-30 14:29N 47°17' W 122°23'0 0.0
2018-May-30 13:59N 47°17' W 122°23'0 0.0
2018-May-29 22:45N 47°17' W 122°23'  

Dump ship's entire track history